No particular awareness of the weather is required.    There are no Weather-warnings


Meteo18 Weather Cam more information Meteo18 Weather Cam


Thunder radar more information blitzortung!


Rain radar more information rain snow radar


Visit our other weather sites:

Template documentation
and downloads

And another site



Weather Underground History page Text

Daily Summary for May 25, 2017 Units:  English    Metric   Both
« Previous Day
Next Day »
Daily Weekly Monthly Yearly Custom
  High: Low: Average:
Temperature: TemperatureC °F 13.6 °F 19.9 °F
Dew Point: DewpointC °F 12.1 °F 13.9 °F
Humidity: Humidity % 49 % 70 %
Wind Speed: WindSpeedKMH mph 0.0 mph 9.4 mph
Wind Gust: WindSpeedGustKMH mph - -
Wind:- - ENE
Pressure: PressurehPa in 1017.8 in -
Precipitation: 0.0 in    
Historical Graphs
 
 
Tabular Data for May 25, 2017
Time Temperature Dew Point Pressure Wind Wind Speed Wind Gust Humidity Rainfall Rate (Hourly)
TemperatureC °F DewpointC °F PressurehPa in Calm     Humidity % HourlyPrecipMM in
00:02 16.7 °F 14.2 °F 1023.6 in Calm   12.9 mph 85 % 0.0 in
00:12 16.7 °F 14.2 °F 1023.2 in NE 4.8 mph 11.3 mph 85 % 0.0 in
00:17 16.8 °F 14.3 °F 1023.2 in Calm   11.3 mph 85 % 0.0 in
00:22 16.8 °F 14.3 °F 1023.2 in NE 4.8 mph 11.3 mph 85 % 0.0 in
00:32 16.8 °F 14.3 °F 1023.2 in NW 9.7 mph 12.9 mph 85 % 0.0 in
00:37 16.8 °F 14.3 °F 1023.2 in NNW 3.2 mph 12.9 mph 85 % 0.0 in
00:42 16.7 °F 14.2 °F 1023.2 in North 1.6 mph 12.9 mph 85 % 0.0 in
00:47 16.7 °F 14.2 °F 1023.2 in NNW 4.8 mph 12.9 mph 85 % 0.0 in
00:52 16.6 °F 14.1 °F 1023.2 in NE 1.6 mph 12.9 mph 85 % 0.0 in
00:57 16.5 °F 14.1 °F 1023.2 in NNW 3.2 mph 12.9 mph 86 % 0.0 in
01:02 16.4 °F 13.9 °F 1023.2 in NNE 3.2 mph 12.9 mph 85 % 0.0 in
01:12 16.3 °F 14.0 °F 1023.2 in NNE 6.4 mph 12.9 mph 86 % 0.0 in
01:17 16.4 °F 13.9 °F 1023.2 in NE 3.2 mph 11.3 mph 85 % 0.0 in
01:22 16.5 °F 14.0 °F 1023.2 in North 6.4 mph 11.3 mph 85 % 0.0 in
01:27 16.6 °F 14.1 °F 1023.2 in NNE 8.0 mph 17.7 mph 85 % 0.0 in
01:32 16.7 °F 14.0 °F 1023.2 in NE 11.3 mph 17.7 mph 84 % 0.0 in
01:37 16.8 °F 13.9 °F 1023.2 in NNE 8.0 mph 17.7 mph 83 % 0.0 in
01:42 16.8 °F 13.9 °F 1023.2 in NE 8.0 mph 17.7 mph 83 % 0.0 in
01:47 16.8 °F 13.9 °F 1022.9 in NE 11.3 mph 14.5 mph 83 % 0.0 in
01:52 16.8 °F 13.7 °F 1022.9 in NE 9.7 mph 14.5 mph 82 % 0.0 in
02:02 16.6 °F 13.7 °F 1022.9 in NE 4.8 mph 17.7 mph 83 % 0.0 in
02:12 16.3 °F 13.4 °F 1022.9 in NE 8.0 mph 12.9 mph 83 % 0.0 in
02:17 16.3 °F 13.4 °F 1022.9 in NE 8.0 mph 11.3 mph 83 % 0.0 in
02:22 16.3 °F 13.4 °F 1022.9 in ENE 6.4 mph 11.3 mph 83 % 0.0 in
02:32 16.1 °F 13.2 °F 1022.9 in NE 4.8 mph 12.9 mph 83 % 0.0 in
02:37 15.9 °F 13.2 °F 1022.9 in NE 6.4 mph 11.3 mph 84 % 0.0 in
02:42 15.8 °F 13.3 °F 1022.6 in NE 4.8 mph 11.3 mph 85 % 0.0 in
02:47 15.7 °F 13.2 °F 1022.6 in NE 3.2 mph 9.7 mph 85 % 0.0 in
02:52 15.7 °F 13.2 °F 1022.6 in NE 3.2 mph 9.7 mph 85 % 0.0 in
02:57 15.7 °F 13.2 °F 1022.6 in NNE 4.8 mph 8.0 mph 85 % 0.0 in
03:02 15.6 °F 13.1 °F 1022.6 in NE 6.4 mph 8.0 mph 85 % 0.0 in
03:12 15.4 °F 12.9 °F 1022.2 in NNE 3.2 mph 8.0 mph 85 % 0.0 in
03:17 15.3 °F 12.8 °F 1022.2 in NNE 3.2 mph 8.0 mph 85 % 0.0 in
03:22 15.1 °F 12.8 °F 1022.2 in North 1.6 mph 8.0 mph 86 % 0.0 in
03:32 14.8 °F 12.7 °F 1022.2 in North 4.8 mph 4.8 mph 87 % 0.0 in
03:37 14.8 °F 12.7 °F 1022.2 in NNE 4.8 mph 8.0 mph 87 % 0.0 in
03:42 14.7 °F 12.6 °F 1022.2 in NNE 4.8 mph 8.0 mph 87 % 0.0 in
03:47 14.6 °F 12.5 °F 1022.2 in North 3.2 mph 9.7 mph 87 % 0.0 in
03:52 14.6 °F 12.6 °F 1022.2 in NE 4.8 mph 9.7 mph 88 % 0.0 in
03:57 14.5 °F 12.5 °F 1022.2 in North 3.2 mph 8.0 mph 88 % 0.0 in
04:02 14.4 °F 12.4 °F 1022.2 in NNE 4.8 mph 8.0 mph 88 % 0.0 in
04:12 14.4 °F 12.4 °F 1022.2 in NE 4.8 mph 8.0 mph 88 % 0.0 in
04:17 14.4 °F 12.4 °F 1022.2 in NNE 6.4 mph 12.9 mph 88 % 0.0 in
04:22 14.3 °F 12.5 °F 1022.2 in NE 8.0 mph 12.9 mph 89 % 0.0 in
04:27 14.3 °F 12.3 °F 1022.2 in NNW 8.0 mph 9.7 mph 88 % 0.0 in
04:32 14.3 °F 12.3 °F 1022.2 in NNE 3.2 mph 9.7 mph 88 % 0.0 in
04:37 14.2 °F 12.2 °F 1021.9 in North 3.2 mph 11.3 mph 88 % 0.0 in
04:42 14.2 °F 12.4 °F 1021.9 in NNE 8.0 mph 11.3 mph 89 % 0.0 in
04:47 14.2 °F 12.4 °F 1021.9 in NNE 3.2 mph 11.3 mph 89 % 0.0 in
04:52 14.1 °F 12.3 °F 1021.9 in Calm   11.3 mph 89 % 0.0 in
05:02 14.1 °F 12.3 °F 1021.9 in North 4.8 mph 9.7 mph 89 % 0.0 in
05:12 13.9 °F 12.3 °F 1021.9 in NNE 4.8 mph 11.3 mph 90 % 0.0 in
05:17 14.1 °F 12.5 °F 1021.9 in NNE 3.2 mph 11.3 mph 90 % 0.0 in
05:22 14.1 °F 12.3 °F 1021.9 in NNE 4.8 mph 11.3 mph 89 % 0.0 in
05:32 14.1 °F 12.3 °F 1021.9 in Calm   8.0 mph 89 % 0.0 in
05:42 13.9 °F 12.1 °F 1021.9 in NNE 1.6 mph 6.4 mph 89 % 0.0 in
05:47 13.8 °F 12.2 °F 1021.9 in NNE 1.6 mph 6.4 mph 90 % 0.0 in
05:52 13.8 °F 12.2 °F 1021.6 in North 1.6 mph 6.4 mph 90 % 0.0 in
06:02 13.7 °F 12.1 °F 1021.6 in NE 1.6 mph 4.8 mph 90 % 0.0 in
06:12 13.6 °F 12.2 °F 1021.6 in NE 6.4 mph 6.4 mph 91 % 0.0 in
06:17 13.7 °F 12.3 °F 1021.9 in NNE 4.8 mph 6.4 mph 91 % 0.0 in
06:22 13.7 °F 12.1 °F 1021.9 in NNE 8.0 mph 8.0 mph 90 % 0.0 in
06:32 13.9 °F 12.3 °F 1021.9 in NNE 6.4 mph 9.7 mph 90 % 0.0 in
06:37 14.2 °F 12.6 °F 1021.9 in NNE 8.0 mph 9.7 mph 90 % 0.0 in
06:42 14.6 °F 12.8 °F 1021.9 in North 6.4 mph 9.7 mph 89 % 0.0 in
06:52 14.9 °F 12.9 °F 1021.9 in NE 6.4 mph 9.7 mph 88 % 0.0 in
06:57 15.1 °F 13.1 °F 1021.9 in NE 8.0 mph 16.1 mph 88 % 0.0 in
07:02 15.3 °F 13.1 °F 1021.9 in NE 9.7 mph 16.1 mph 87 % 0.0 in
07:07 15.4 °F 13.2 °F 1021.9 in NE 6.4 mph 16.1 mph 87 % 0.0 in
07:12 15.5 °F 13.3 °F 1021.9 in NE 11.3 mph 16.1 mph 87 % 0.0 in
07:17 15.6 °F 13.4 °F 1021.9 in NNE 9.7 mph 16.1 mph 87 % 0.0 in
07:22 15.7 °F 13.4 °F 1021.9 in NNE 11.3 mph 17.7 mph 86 % 0.0 in
07:32 15.9 °F 13.6 °F 1022.2 in NE 8.0 mph 17.7 mph 86 % 0.0 in
07:37 16.1 °F 13.6 °F 1022.2 in North 8.0 mph 17.7 mph 85 % 0.0 in
07:42 16.2 °F 13.7 °F 1022.2 in NNE 11.3 mph 20.9 mph 85 % 0.0 in
07:52 16.3 °F 13.8 °F 1022.2 in NE 11.3 mph 16.1 mph 85 % 0.0 in
07:57 16.3 °F 13.6 °F 1022.2 in NE 11.3 mph 16.1 mph 84 % 0.0 in
08:02 16.3 °F 13.6 °F 1022.2 in ENE 9.7 mph 17.7 mph 84 % 0.0 in
08:12 16.4 °F 13.7 °F 1022.2 in ENE 9.7 mph 17.7 mph 84 % 0.0 in
08:17 16.6 °F 13.7 °F 1022.2 in NE 3.2 mph 17.7 mph 83 % 0.0 in
08:22 16.7 °F 13.8 °F 1022.2 in NE 6.4 mph 16.1 mph 83 % 0.0 in
08:32 17.0 °F 13.9 °F 1022.2 in East 9.7 mph 16.1 mph 82 % 0.0 in
08:37 17.1 °F 13.8 °F 1022.2 in NE 9.7 mph 16.1 mph 81 % 0.0 in
08:42 17.2 °F 14.1 °F 1022.2 in ENE 11.3 mph 17.7 mph 82 % 0.0 in
08:52 17.6 °F 14.3 °F 1022.2 in ENE 8.0 mph 17.7 mph 81 % 0.0 in
08:57 17.7 °F 14.2 °F 1022.2 in ENE 3.2 mph 17.7 mph 80 % 0.0 in
09:02 17.9 °F 14.4 °F 1022.2 in ENE 6.4 mph 17.7 mph 80 % 0.0 in
09:07 18.2 °F 14.5 °F 1022.2 in ENE 6.4 mph 17.7 mph 79 % 0.0 in
09:12 18.3 °F 14.4 °F 1022.2 in NNE 6.4 mph 14.5 mph 78 % 0.0 in
09:17 18.4 °F 14.5 °F 1022.2 in ENE 4.8 mph 14.5 mph 78 % 0.0 in
09:22 18.6 °F 14.7 °F 1022.2 in NNE 8.0 mph 16.1 mph 78 % 0.0 in
09:32 18.8 °F 14.5 °F 1022.2 in NE 12.9 mph 19.3 mph 76 % 0.0 in
09:42 19.2 °F 14.7 °F 1022.2 in ENE 9.7 mph 19.3 mph 75 % 0.0 in
09:47 19.4 °F 14.9 °F 1022.2 in NE 8.0 mph 19.3 mph 75 % 0.0 in
09:52 19.6 °F 14.8 °F 1022.2 in NE 8.0 mph 19.3 mph 74 % 0.0 in
10:02 19.9 °F 14.7 °F 1022.2 in ENE 8.0 mph 17.7 mph 72 % 0.0 in
10:12 20.2 °F 15.0 °F 1022.2 in NE 4.8 mph 19.3 mph 72 % 0.0 in
10:17 20.2 °F 14.8 °F 1022.2 in NNE 8.0 mph 19.3 mph 71 % 0.0 in
10:22 20.4 °F 14.7 °F 1022.2 in NE 4.8 mph 19.3 mph 70 % 0.0 in
10:27 20.4 °F 15.0 °F 1022.2 in NNE 16.1 mph 19.3 mph 71 % 0.0 in
10:32 20.6 °F 15.2 °F 1021.9 in NE 14.5 mph 19.3 mph 71 % 0.0 in
10:42 20.8 °F 14.9 °F 1021.9 in East 11.3 mph 22.5 mph 69 % 0.0 in
10:52 21.1 °F 15.0 °F 1021.9 in NE 9.7 mph 19.3 mph 68 % 0.0 in
10:57 21.1 °F 14.7 °F 1021.9 in East 8.0 mph 19.3 mph 67 % 0.0 in
11:02 21.4 °F 15.5 °F 1021.9 in NE 11.3 mph 22.5 mph 69 % 0.0 in
11:12 21.7 °F 14.6 °F 1021.9 in ENE 11.3 mph 22.5 mph 64 % 0.0 in
11:17 21.8 °F 14.4 °F 1021.6 in NNW 12.9 mph 22.5 mph 63 % 0.0 in
11:22 21.8 °F 13.9 °F 1021.6 in ENE 19.3 mph 22.5 mph 61 % 0.0 in
11:32 22.1 °F 13.7 °F 1021.6 in NE 22.5 mph 29.0 mph 59 % 0.0 in
11:42 22.4 °F 13.5 °F 1021.6 in ENE 16.1 mph 29.0 mph 57 % 0.0 in
11:47 22.4 °F 13.2 °F 1021.6 in ENE 14.5 mph 29.0 mph 56 % 0.0 in
11:52 22.5 °F 14.1 °F 1021.6 in NNE 19.3 mph 30.6 mph 59 % 0.0 in
11:57 22.6 °F 13.4 °F 1021.6 in ENE 17.7 mph 30.6 mph 56 % 0.0 in
12:02 22.6 °F 14.2 °F 1021.6 in ENE 14.5 mph 30.6 mph 59 % 0.0 in
12:12 22.7 °F 14.5 °F 1021.6 in NE 9.7 mph 29.0 mph 60 % 0.0 in
12:17 22.9 °F 14.7 °F 1021.6 in NE 16.1 mph 29.0 mph 60 % 0.0 in
12:22 23.0 °F 14.8 °F 1021.6 in NNE 22.5 mph 27.4 mph 60 % 0.0 in
12:32 22.9 °F 14.7 °F 1021.6 in NE 12.9 mph 27.4 mph 60 % 0.0 in
12:42 23.1 °F 14.4 °F 1021.2 in NE 17.7 mph 29.0 mph 58 % 0.0 in
12:47 23.1 °F 14.1 °F 1021.2 in ENE 24.1 mph 29.0 mph 57 % 0.0 in
12:52 23.3 °F 14.8 °F 1021.2 in NE 8.0 mph 30.6 mph 59 % 0.0 in
13:02 23.3 °F 14.0 °F 1021.2 in NE 16.1 mph 30.6 mph 56 % 0.0 in
13:07 23.3 °F 14.3 °F 1021.2 in East 12.9 mph 24.1 mph 57 % 0.0 in
13:17 23.6 °F 14.3 °F 1020.9 in ENE 22.5 mph 24.1 mph 56 % 0.0 in
13:22 23.8 °F 14.8 °F 1020.9 in ENE 9.7 mph 27.4 mph 57 % 0.0 in
13:32 23.7 °F 14.4 °F 1020.9 in NE 17.7 mph 27.4 mph 56 % 0.0 in
13:37 23.7 °F 14.1 °F 1020.9 in NNE 12.9 mph 27.4 mph 55 % 0.0 in
13:42 23.9 °F 14.6 °F 1020.9 in NE 12.9 mph 27.4 mph 56 % 0.0 in
13:52 23.8 °F 15.3 °F 1020.9 in NNE 14.5 mph 25.7 mph 59 % 0.0 in
13:57 23.9 °F 14.6 °F 1020.5 in NNE 14.5 mph 30.6 mph 56 % 0.0 in
14:02 23.9 °F 14.6 °F 1020.5 in East 19.3 mph 30.6 mph 56 % 0.0 in
14:12 24.4 °F 14.2 °F 1020.5 in NNE 16.1 mph 30.6 mph 53 % 0.0 in
14:17 24.3 °F 13.8 °F 1020.5 in NNE 16.1 mph 27.4 mph 52 % 0.0 in
14:22 24.5 °F 14.6 °F 1020.2 in NNE 9.7 mph 27.4 mph 54 % 0.0 in
14:32 24.7 °F 14.8 °F 1020.2 in NE 14.5 mph 27.4 mph 54 % 0.0 in
14:37 24.7 °F 15.1 °F 1020.2 in NE 22.5 mph 27.4 mph 55 % 0.0 in
14:42 24.6 °F 14.1 °F 1020.2 in ESE 12.9 mph 27.4 mph 52 % 0.0 in
14:52 24.8 °F 14.6 °F 1020.2 in NNE 29.0 mph 29.0 mph 53 % 0.0 in
14:57 24.7 °F 14.2 °F 1019.9 in NNE 9.7 mph 33.8 mph 52 % 0.0 in
15:02 24.7 °F 14.2 °F 1019.9 in ENE 9.7 mph 33.8 mph 52 % 0.0 in
15:12 24.8 °F 14.6 °F 1019.9 in NE 11.3 mph 33.8 mph 53 % 0.0 in
15:17 24.8 °F 14.3 °F 1019.9 in NE 14.5 mph 29.0 mph 52 % 0.0 in
15:22 24.9 °F 14.4 °F 1019.9 in ENE 16.1 mph 29.0 mph 52 % 0.0 in
15:27 25.1 °F 14.3 °F 1019.5 in NNE 17.7 mph 30.6 mph 51 % 0.0 in
15:32 25.1 °F 14.6 °F 1019.5 in East 11.3 mph 30.6 mph 52 % 0.0 in
15:37 25.2 °F 14.3 °F 1019.9 in NE 27.4 mph 30.6 mph 51 % 0.0 in
15:42 25.3 °F 14.4 °F 1019.5 in NE 8.0 mph 30.6 mph 51 % 0.0 in
15:52 25.6 °F 14.7 °F 1019.5 in ENE 11.3 mph 30.6 mph 51 % 0.0 in
15:57 25.7 °F 15.7 °F 1019.5 in ENE 6.4 mph 29.0 mph 54 % 0.0 in
16:02 25.7 °F 14.2 °F 1019.5 in ENE 17.7 mph 29.0 mph 49 % 0.0 in
16:12 25.7 °F 15.4 °F 1019.2 in NE 16.1 mph 29.0 mph 53 % 0.0 in
16:17 25.8 °F 14.9 °F 1019.2 in NE 14.5 mph 25.7 mph 51 % 0.0 in
16:22 25.8 °F 15.8 °F 1019.2 in NNE 12.9 mph 25.7 mph 54 % 0.0 in
16:32 25.4 °F 16.0 °F 1018.8 in North 6.4 mph 25.7 mph 56 % 0.0 in
16:37 25.3 °F 15.3 °F 1018.8 in NNE 14.5 mph 29.0 mph 54 % 0.0 in
16:42 25.4 °F 15.7 °F 1018.8 in ENE 11.3 mph 29.0 mph 55 % 0.0 in
16:47 25.6 °F 15.9 °F 1018.8 in NE 16.1 mph 27.4 mph 55 % 0.0 in
16:52 25.4 °F 15.7 °F 1018.8 in NE 9.7 mph 27.4 mph 55 % 0.0 in
16:57 25.4 °F 15.7 °F 1018.8 in NE 20.9 mph 30.6 mph 55 % 0.0 in
17:02 25.4 °F 16.3 °F 1018.8 in NNE 19.3 mph 30.6 mph 57 % 0.0 in
17:12 25.4 °F 15.4 °F 1018.8 in NE 24.1 mph 29.0 mph 54 % 0.0 in
17:17 25.6 °F 15.6 °F 1018.8 in NE 14.5 mph 29.0 mph 54 % 0.0 in
17:22 25.6 °F 15.9 °F 1018.8 in NNE 4.8 mph 27.4 mph 55 % 0.0 in
17:27 25.6 °F 15.6 °F 1018.8 in NNE 16.1 mph 27.4 mph 54 % 0.0 in
17:32 25.6 °F 15.6 °F 1018.8 in ENE 9.7 mph 27.4 mph 54 % 0.0 in
17:37 25.6 °F 15.6 °F 1018.5 in NE 9.7 mph 25.7 mph 54 % 0.0 in
17:42 25.7 °F 16.0 °F 1018.5 in NE 19.3 mph 25.7 mph 55 % 0.0 in
17:47 25.6 °F 15.9 °F 1018.5 in NNE 14.5 mph 25.7 mph 55 % 0.0 in
17:52 25.6 °F 15.6 °F 1018.5 in East 9.7 mph 25.7 mph 54 % 0.0 in
17:57 25.7 °F 16.0 °F 1018.5 in North 14.5 mph 25.7 mph 55 % 0.0 in
18:02 25.6 °F 15.9 °F 1018.5 in NNE 12.9 mph 25.7 mph 55 % 0.0 in
18:12 25.4 °F 15.7 °F 1018.2 in NNE 12.9 mph 24.1 mph 55 % 0.0 in
18:17 25.4 °F 16.0 °F 1018.5 in NE 11.3 mph 29.0 mph 56 % 0.0 in
18:22 25.5 °F 16.1 °F 1018.5 in East 16.1 mph 27.4 mph 56 % 0.0 in
18:32 25.4 °F 16.0 °F 1018.2 in NE 11.3 mph 27.4 mph 56 % 0.0 in
18:42 25.4 °F 16.0 °F 1018.2 in East 9.7 mph 24.1 mph 56 % 0.0 in
18:47 25.5 °F 15.8 °F 1018.2 in ENE 9.7 mph 24.1 mph 55 % 0.0 in
19:02 25.3 °F 15.6 °F 1017.8 in NNE 12.9 mph 25.7 mph 55 % 0.0 in
19:12 25.2 °F 16.1 °F 1017.8 in NNE 11.3 mph 24.1 mph 57 % 0.0 in
19:17 25.1 °F 16.0 °F 1017.8 in NE 12.9 mph 24.1 mph 57 % 0.0 in
19:22 25.0 °F 15.9 °F 1017.8 in NE 14.5 mph 24.1 mph 57 % 0.0 in
19:32 24.8 °F 15.7 °F 1017.8 in NE 8.0 mph 24.1 mph 57 % 0.0 in
19:42 24.7 °F 15.1 °F 1017.8 in NNE 19.3 mph 24.1 mph 55 % 0.0 in
19:47 24.7 °F 15.3 °F 1017.8 in NNW 14.5 mph 29.0 mph 56 % 0.0 in
19:52 24.6 °F 15.0 °F 1017.8 in NE 12.9 mph 29.0 mph 55 % 0.0 in
20:02 24.4 °F 15.1 °F 1017.8 in NNE 11.3 mph 25.7 mph 56 % 0.0 in
20:12 24.1 °F 14.8 °F 1017.8 in NE 9.7 mph 25.7 mph 56 % 0.0 in
20:17 24.0 °F 14.7 °F 1017.8 in NE 11.3 mph 24.1 mph 56 % 0.0 in
20:22 23.9 °F 14.9 °F 1017.8 in NNE 11.3 mph 24.1 mph 57 % 0.0 in
20:32 23.7 °F 14.4 °F 1017.8 in NNE 9.7 mph 24.1 mph 56 % 0.0 in
20:42 23.4 °F 13.8 °F 1017.8 in NE 12.9 mph 24.1 mph 55 % 0.0 in
20:47 23.3 °F 14.0 °F 1017.8 in NNE 17.7 mph 22.5 mph 56 % 0.0 in
20:52 23.2 °F 13.9 °F 1017.8 in NNE 9.7 mph 22.5 mph 56 % 0.0 in
20:57 23.0 °F 13.7 °F 1017.8 in NNE 12.9 mph 19.3 mph 56 % 0.0 in
21:02 22.8 °F 13.6 °F 1017.8 in North 20.9 mph 20.9 mph 56 % 0.0 in
21:07 22.7 °F 13.7 °F 1017.8 in ENE 4.8 mph 17.7 mph 57 % 0.0 in
21:12 22.4 °F 13.5 °F 1017.8 in NNE 3.2 mph 17.7 mph 57 % 0.0 in
21:17 22.2 °F 13.3 °F 1017.8 in North 14.5 mph 20.9 mph 57 % 0.0 in
21:22 22.0 °F 13.4 °F 1017.8 in NNE 6.4 mph 20.9 mph 58 % 0.0 in
21:32 21.4 °F 13.1 °F 1017.8 in NE 8.0 mph 16.1 mph 59 % 0.0 in
21:42 21.2 °F 13.1 °F 1017.8 in North 1.6 mph 12.9 mph 60 % 0.0 in
21:47 21.0 °F 13.2 °F 1017.8 in NNE 1.6 mph 9.7 mph 61 % 0.0 in
21:52 20.7 °F 13.4 °F 1017.8 in NNE 4.8 mph 9.7 mph 63 % 0.0 in
21:57 20.3 °F 13.3 °F 1017.8 in NNE 8.0 mph 12.9 mph 64 % 0.0 in
22:02 20.1 °F 13.3 °F 1017.8 in NNE 6.4 mph 12.9 mph 65 % 0.0 in
22:12 19.8 °F 13.0 °F 1018.2 in NNE 8.0 mph 12.9 mph 65 % 0.0 in
22:17 19.6 °F 12.8 °F 1018.2 in NE 12.9 mph 14.5 mph 65 % 0.0 in
22:22 19.6 °F 12.8 °F 1018.2 in NE 6.4 mph 14.5 mph 65 % 0.0 in
22:32 19.6 °F 12.8 °F 1018.2 in NNE 4.8 mph 17.7 mph 65 % 0.0 in
22:37 19.4 °F 12.7 °F 1018.2 in NE 4.8 mph 14.5 mph 65 % 0.0 in
22:42 19.2 °F 12.7 °F 1018.2 in NNE 6.4 mph 14.5 mph 66 % 0.0 in
22:47 19.2 °F 12.7 °F 1018.2 in NE 8.0 mph 14.5 mph 66 % 0.0 in
22:52 19.1 °F 12.6 °F 1018.5 in NNE 6.4 mph 12.9 mph 66 % 0.0 in
22:57 19.2 °F 12.7 °F 1018.5 in NE 6.4 mph 12.9 mph 66 % 0.0 in
23:02 19.0 °F 12.7 °F 1018.5 in NE 6.4 mph 12.9 mph 67 % 0.0 in
23:12 18.7 °F 12.7 °F 1018.5 in NNE 6.4 mph 12.9 mph 68 % 0.0 in
23:22 18.3 °F 12.5 °F 1018.5 in NNE 3.2 mph 12.9 mph 69 % 0.0 in
23:27 18.1 °F 12.5 °F 1018.5 in NNW 1.6 mph 11.3 mph 70 % 0.0 in
23:32 17.9 °F 12.6 °F 1018.2 in NNE 1.6 mph 11.3 mph 71 % 0.0 in
23:37 17.8 °F 12.5 °F 1018.5 in NE 1.6 mph 6.4 mph 71 % 0.0 in
23:42 17.7 °F 12.4 °F 1018.5 in Calm   6.4 mph 71 % 0.0 in
23:47 17.8 °F 12.5 °F 1018.5 in NE 3.2 mph 6.4 mph 71 % 0.0 in
23:52 18.0 °F 12.4 °F 1018.5 in NE 6.4 mph 6.4 mph 70 % 0.0 in
Meteo18
Compliments of Weather Underground - 4 mb

Script developed by  Jim McMurry - jmcmurry@mwt.net Adapted for the template by  Wim van der Kuil - Leuven-Template.eu

You find our weather info also at:

European Weather Network

Weather Underground

Equipment we use:

Weather-station
Davis Vue

Weather-program
Meteobridge

Weather-server
Raspberry PI 2 B+

Provider
1 and 1

Davis Vue

Meteobridge

Raspberry PI 2 B+

1 and 1